Impacts METAR Board
IDs:

KMDW - Chicago/Midway Intl, IL, US

Updated at: 2100 UTC 26 May 2019
Potential Impact None Slight Moderate High
Time 26/09Z 26/10Z 26/11Z 26/12Z 26/13Z 26/14Z 26/15Z 26/16Z 26/17Z 26/18Z 26/19Z 26/20Z 26/21Z
Temp72 71 70 69 65 66 64 64 67 70 73 75 70
Dewpt64 62 63 62 56 54 53 52 54 56 58 57 54
Altim29.96 29.97 30.00 30.03 30.04 30.02 30.04 30.02 30.05 30.05 30.06 30.05 30.05
VIS10 10 10 10 10 10 10 10 10 10 10 10 10
CIG200 180 160 29 16 23 19 100 120 110 120 120 120
CoverBKNBKNOVCOVCOVCOVCOVCOVCOVCOVCBKNBKNBKN
FltCatVFRVFRVFRMVFRMVFRMVFRMVFRVFRVFRVFRVFRVFRVFR
WX-------------RA------------
WDir2402703102404050303000330060
WSpd10 10 6 10 6 5 6 7 0 3 3 0 11
WGst16 -- -- -- -- -- -- -- -- -- -- -- --
Raw hourly METARs
KMDW 260853Z 24010G16KT 10SM FEW010 SCT040 BKN200 22/18 A2996 RMK AO2 SLP137 60000 T02220178 55000
KMDW 260953Z 27010KT 10SM SCT032 SCT055 BKN180 22/17 A2997 RMK AO2 SLP139 T02170167
KMDW 261053Z 31006KT 10SM SCT049 SCT060 OVC160 21/17 A3000 RMK AO2 SLP149 T02110172
KMDW 261153Z 24010KT 10SM FEW022 BKN029 OVC036 21/17 A3003 RMK AO2 SLP159 60000 T02060167 10233 20206 51018
KMDW 261253Z 04006KT 10SM BKN016 BKN021 OVC036 18/13 A3004 RMK AO2 RAB18E48 SLP164 P0000 T01830133
KMDW 261353Z 05005KT 10SM BKN023 BKN036 OVC150 19/12 A3002 RMK AO2 SLP158 T01890122
KMDW 261453Z 03006KT 10SM -RA BKN019 OVC110 18/12 A3004 RMK AO2 RAB42 SLP166 P0000 60000 T01780117 53005
KMDW 261553Z 03007KT 10SM FEW021 SCT035 OVC100 18/11 A3002 RMK AO2 RAE07 SLP158 P0001 T01780111
KMDW 261653Z 00000KT 10SM FEW021 BKN120 OVC250 19/12 A3005 RMK AO2 RAB03E20 SLP168 P0000 T01940122
KMDW 261753Z VRB03KT 10SM FEW021 FEW065 BKN110 OVC250 21/13 A3005 RMK AO2 SLP168 60001 T02110133 10211 20178 53002
KMDW 261853Z 33003KT 10SM FEW024 FEW065 BKN120 BKN250 23/14 A3006 RMK AO2 SLP169 T02280144
KMDW 261953Z 00000KT 10SM FEW035 BKN120 BKN250 24/14 A3005 RMK AO2 SLP167 T02390139
KMDW 262053Z 06011KT 10SM SCT042 BKN120 BKN250 21/12 A3005 RMK AO2 SLP167 T02110122 58001



Page loaded:  21:09 UTC  |   02:09 PM Pacific  |   03:09 PM Mountain  |   04:09 PM Central  |   05:09 PM Eastern

 

ADVISORIES

FORECASTS

FORECASTS

OBSERVATIONS

USER TOOLS

ABOUT US